createdAt,value
2018-02-04T00:01:04.044Z,99.58
2018-02-04T00:02:04.014Z,99.20
2018-02-04T00:03:56.977Z,99.48
2018-02-04T00:04:56.905Z,99.29
2018-02-04T00:06:49.918Z,99.67
2018-02-04T00:07:49.846Z,99.10
2018-02-04T00:09:42.780Z,99.39
2018-02-04T00:10:42.723Z,99.96
2018-02-04T00:12:35.683Z,99.48
2018-02-04T00:13:35.633Z,99.10
2018-02-04T00:15:28.795Z,99.77
2018-02-04T00:16:28.718Z,99.86
2018-02-04T00:18:21.738Z,99.48
2018-02-04T00:19:21.697Z,99.77
2018-02-04T00:21:14.648Z,99.99
2018-02-04T00:22:14.574Z,99.29
2018-02-04T00:24:07.384Z,99.86
2018-02-04T00:25:07.354Z,99.29
2018-02-04T00:27:00.538Z,99.99
2018-02-04T00:28:00.485Z,99.77
2018-02-04T00:29:53.493Z,99.58
2018-02-04T00:30:53.466Z,99.86
2018-02-04T00:32:46.273Z,99.58
2018-02-04T00:33:46.198Z,99.77
2018-02-04T00:35:39.254Z,99.99
2018-02-04T00:36:39.156Z,99.29
2018-02-04T00:38:32.112Z,99.86
2018-02-04T00:39:32.059Z,99.48
2018-02-04T00:41:25.040Z,99.39
2018-02-04T00:42:24.964Z,99.99
2018-02-04T00:44:17.780Z,99.96
2018-02-04T00:45:17.714Z,99.67
2018-02-04T00:47:10.654Z,99.96
2018-02-04T00:48:10.490Z,99.39
2018-02-04T00:50:03.468Z,99.20
2018-02-04T00:51:03.407Z,98.91
2018-02-04T00:52:56.215Z,99.77
2018-02-04T00:53:56.148Z,99.10
2018-02-04T00:55:48.949Z,99.20
2018-02-04T00:56:48.929Z,99.39
2018-02-04T00:58:42.195Z,99.20
2018-02-04T00:59:41.968Z,99.29
2018-02-04T01:01:34.765Z,99.48
2018-02-04T01:02:34.725Z,99.77
2018-02-04T01:04:27.676Z,99.99
2018-02-04T01:05:27.634Z,99.48
2018-02-04T01:07:20.555Z,99.10
2018-02-04T01:08:20.517Z,99.29
2018-02-04T01:10:13.343Z,98.82
2018-02-04T01:11:13.301Z,99.10
2018-02-04T01:13:06.314Z,99.77
2018-02-04T01:14:06.253Z,99.96
2018-02-04T01:15:59.200Z,99.10
2018-02-04T01:16:59.167Z,99.58
2018-02-04T01:18:52.118Z,99.99
2018-02-04T01:19:52.047Z,99.99
2018-02-04T01:21:45.016Z,99.48
2018-02-04T01:22:44.926Z,98.58
2018-02-04T01:24:37.884Z,98.11
2018-02-04T01:25:37.846Z,98.20
2018-02-04T01:27:30.678Z,98.68
2018-02-04T01:28:30.615Z,98.39
2018-02-04T01:30:23.391Z,97.92
2018-02-04T01:31:23.369Z,98.01
2018-02-04T01:33:16.170Z,98.30
2018-02-04T01:34:16.125Z,98.68
2018-02-04T01:36:09.291Z,98.58
2018-02-04T01:37:09.195Z,98.72
2018-02-04T01:39:02.024Z,99.24
2018-02-04T01:40:01.962Z,98.77
2018-02-04T01:41:54.753Z,98.91
2018-02-04T01:42:54.708Z,99.01
2018-02-04T01:44:47.728Z,98.63
2018-02-04T01:45:47.653Z,98.53
2018-02-04T01:47:40.713Z,98.63
2018-02-04T01:48:40.611Z,97.20
2018-02-04T01:50:33.583Z,97.20
2018-02-04T01:51:33.515Z,96.73
2018-02-04T01:53:26.465Z,97.30
2018-02-04T01:54:26.426Z,97.20
2018-02-04T01:56:19.644Z,96.54
2018-02-04T01:57:19.532Z,96.07
2018-02-04T01:59:12.474Z,96.16
2018-02-04T02:00:12.419Z,95.50
2018-02-04T02:02:05.408Z,94.65
2018-02-04T02:03:05.315Z,94.37
2018-02-04T02:04:58.154Z,93.99
2018-02-04T02:05:58.095Z,93.61
2018-02-04T02:07:51.064Z,93.61
2018-02-04T02:08:51.003Z,94.46
2018-02-04T02:10:43.981Z,94.23
2018-02-04T02:11:43.929Z,94.93
2018-02-04T02:13:36.904Z,95.17
2018-02-04T02:14:36.829Z,94.70
2018-02-04T02:16:29.933Z,95.07
2018-02-04T02:17:29.711Z,95.07
2018-02-04T02:19:22.673Z,95.07
2018-02-04T02:20:22.625Z,95.83
2018-02-04T02:22:15.578Z,95.36
2018-02-04T02:23:15.520Z,95.64
2018-02-04T02:25:08.616Z,95.36
2018-02-04T02:26:08.560Z,95.26
2018-02-04T02:28:01.524Z,94.51
2018-02-04T02:29:01.464Z,94.89
2018-02-04T02:30:54.435Z,94.13
2018-02-04T02:31:54.385Z,94.51
2018-02-04T02:33:47.170Z,93.56
2018-02-04T02:34:47.128Z,93.56
2018-02-04T02:36:39.960Z,93.75
2018-02-04T02:37:39.904Z,93.66
2018-02-04T02:39:32.863Z,93.75
2018-02-04T02:40:32.674Z,94.04
2018-02-04T02:42:25.703Z,93.75
2018-02-04T02:43:25.629Z,94.23
2018-02-04T02:45:18.573Z,93.28
2018-02-04T02:46:18.536Z,93.66
2018-02-04T02:48:11.502Z,93.18
2018-02-04T02:49:11.440Z,93.28
2018-02-04T02:51:04.545Z,93.18
2018-02-04T02:52:04.500Z,93.09
2018-02-04T02:53:57.458Z,93.47
2018-02-04T02:54:57.407Z,93.56
2018-02-04T02:56:50.583Z,92.99
2018-02-04T02:57:50.500Z,92.71
2018-02-04T02:59:43.458Z,92.90
2018-02-04T03:00:43.398Z,93.18
2018-02-04T03:02:36.218Z,92.24
2018-02-04T03:03:36.264Z,91.77
2018-02-04T03:05:29.095Z,92.43
2018-02-04T03:06:29.059Z,92.43
2018-02-04T03:08:22.048Z,91.48
2018-02-04T03:09:21.843Z,91.96
2018-02-04T03:11:14.806Z,91.77
2018-02-04T03:12:14.765Z,91.86
2018-02-04T03:14:07.714Z,91.20
2018-02-04T03:15:07.660Z,91.10
2018-02-04T03:17:00.451Z,91.48
2018-02-04T03:18:00.419Z,91.10
2018-02-04T03:19:53.550Z,90.63
2018-02-04T03:20:53.501Z,90.72
2018-02-04T03:22:46.443Z,90.91
2018-02-04T03:23:46.400Z,90.06
2018-02-04T03:25:39.385Z,90.53
2018-02-04T03:26:39.321Z,90.82
2018-02-04T03:28:32.496Z,90.34
2018-02-04T03:29:32.457Z,90.34
2018-02-04T03:31:25.419Z,90.25
2018-02-04T03:32:25.359Z,90.91
2018-02-04T03:34:18.466Z,90.72
2018-02-04T03:35:18.413Z,90.91
2018-02-04T03:37:11.383Z,90.63
2018-02-04T03:38:11.313Z,90.34
2018-02-04T03:40:04.394Z,89.97
2018-02-04T03:41:04.330Z,90.06
2018-02-04T03:42:57.478Z,90.06
2018-02-04T03:43:57.419Z,90.16
2018-02-04T03:45:50.373Z,91.01
2018-02-04T03:46:50.318Z,90.82
2018-02-04T03:48:43.111Z,91.10
2018-02-04T03:49:43.073Z,90.72
2018-02-04T03:51:36.236Z,90.63
2018-02-04T03:52:36.127Z,90.82
2018-02-04T03:54:29.078Z,90.91
2018-02-04T03:55:29.028Z,90.72
2018-02-04T03:57:22.001Z,91.01
2018-02-04T03:58:21.938Z,90.16
2018-02-04T04:00:15.192Z,90.06
2018-02-04T04:01:15.031Z,90.53
2018-02-04T04:03:07.988Z,89.78
2018-02-04T04:04:07.937Z,90.16
2018-02-04T04:06:00.913Z,90.16
2018-02-04T04:07:00.826Z,90.06
2018-02-04T04:08:53.921Z,90.34
2018-02-04T04:09:53.882Z,90.16
2018-02-04T04:11:46.839Z,89.78
2018-02-04T04:12:46.769Z,90.25
2018-02-04T04:14:39.708Z,89.97
2018-02-04T04:15:39.665Z,89.50
2018-02-04T04:17:32.908Z,89.50
2018-02-04T04:18:32.748Z,89.31
2018-02-04T04:20:25.724Z,89.40
2018-02-04T04:21:25.665Z,89.02
2018-02-04T04:23:18.680Z,88.41
2018-02-04T04:24:18.651Z,88.36
2018-02-04T04:26:11.470Z,88.12
2018-02-04T04:27:11.395Z,88.60
2018-02-04T04:29:04.371Z,88.55
2018-02-04T04:30:04.179Z,88.50
2018-02-04T04:31:56.984Z,87.84
2018-02-04T04:32:56.937Z,87.88
2018-02-04T04:34:49.896Z,87.74
2018-02-04T04:35:49.839Z,88.88
2018-02-04T04:37:42.774Z,87.93
2018-02-04T04:38:42.739Z,87.65
2018-02-04T04:40:35.870Z,88.17
2018-02-04T04:41:35.811Z,88.79
2018-02-04T04:43:28.750Z,88.69
2018-02-04T04:44:28.708Z,88.69
2018-02-04T04:46:21.708Z,88.50
2018-02-04T04:47:21.630Z,87.84
2018-02-04T04:49:14.404Z,88.60
2018-02-04T04:50:14.360Z,87.93
2018-02-04T04:52:07.185Z,88.41
2018-02-04T04:53:07.119Z,88.12
2018-02-04T04:55:00.079Z,87.08
2018-02-04T04:56:00.035Z,87.37
2018-02-04T04:57:52.968Z,86.80
2018-02-04T04:58:52.909Z,85.66
2018-02-04T05:00:45.860Z,85.66
2018-02-04T05:01:45.811Z,85.85
2018-02-04T05:03:38.888Z,86.42
2018-02-04T05:04:38.820Z,85.85
2018-02-04T05:06:31.830Z,85.76
2018-02-04T05:07:31.790Z,86.23
2018-02-04T05:09:24.745Z,85.95
2018-02-04T05:10:24.686Z,85.95
2018-02-04T05:12:17.492Z,86.04
2018-02-04T05:13:17.445Z,85.85
2018-02-04T05:15:10.326Z,86.33
2018-02-04T05:16:10.193Z,85.85
2018-02-04T05:18:03.260Z,86.33
2018-02-04T05:19:03.385Z,86.04
2018-02-04T05:20:56.174Z,84.91
2018-02-04T05:21:56.112Z,84.91
2018-02-04T05:23:48.910Z,83.87
2018-02-04T05:24:48.865Z,83.78
2018-02-04T05:26:41.845Z,83.78
2018-02-04T05:27:41.771Z,84.06
2018-02-04T05:29:34.734Z,84.25
2018-02-04T05:30:34.664Z,83.97
2018-02-04T05:32:27.630Z,83.59
2018-02-04T05:33:27.591Z,83.30
2018-02-04T05:35:20.726Z,83.97
2018-02-04T05:36:20.649Z,83.59
2018-02-04T05:38:13.628Z,83.49
2018-02-04T05:39:13.564Z,83.40
2018-02-04T05:41:06.526Z,82.83
2018-02-04T05:42:06.465Z,83.11
2018-02-04T05:43:59.269Z,82.92
2018-02-04T05:44:59.217Z,83.02
2018-02-04T05:46:52.194Z,82.83
2018-02-04T05:47:52.116Z,83.40
2018-02-04T05:49:45.063Z,82.73
2018-02-04T05:50:45.043Z,82.26
2018-02-04T05:52:37.989Z,81.98
2018-02-04T05:53:37.916Z,81.79
2018-02-04T05:55:31.010Z,82.26
2018-02-04T05:56:30.975Z,81.41
2018-02-04T05:58:23.955Z,81.60
2018-02-04T05:59:23.884Z,81.13
2018-02-04T06:01:16.834Z,81.51
2018-02-04T06:02:16.770Z,80.94
2018-02-04T06:04:09.687Z,81.32
2018-02-04T06:05:09.610Z,80.37
2018-02-04T06:07:02.701Z,80.08
2018-02-04T06:08:02.652Z,80.18
2018-02-04T06:09:55.642Z,79.99
2018-02-04T06:10:55.549Z,79.71
2018-02-04T06:12:48.362Z,79.99
2018-02-04T06:13:48.305Z,79.52
2018-02-04T06:15:41.139Z,79.52
2018-02-04T06:16:41.072Z,79.52
2018-02-04T06:18:34.047Z,78.58
2018-02-04T06:19:34.011Z,78.67
2018-02-04T06:21:26.994Z,78.76
2018-02-04T06:22:26.906Z,78.39
2018-02-04T06:24:19.700Z,77.91
2018-02-04T06:25:19.656Z,77.63
2018-02-04T06:27:12.887Z,77.72
2018-02-04T06:28:12.754Z,77.34
2018-02-04T06:30:05.726Z,77.63
2018-02-04T06:31:05.659Z,77.53
2018-02-04T06:32:58.460Z,76.78
2018-02-04T06:33:58.500Z,75.83
2018-02-04T06:35:51.734Z,74.69
2018-02-04T06:36:51.498Z,74.04
2018-02-04T06:38:44.457Z,73.94
2018-02-04T06:39:44.397Z,73.81
2018-02-04T06:41:37.330Z,73.43
2018-02-04T06:42:37.349Z,73.18
2018-02-04T06:44:30.441Z,72.71
2018-02-04T06:45:30.382Z,73.37
2018-02-04T06:47:23.326Z,72.96
2018-02-04T06:48:23.280Z,72.52
2018-02-04T06:50:16.251Z,72.99
2018-02-04T06:51:16.191Z,72.99
2018-02-04T06:53:09.364Z,73.09
2018-02-04T06:54:09.323Z,73.47
2018-02-04T06:56:02.098Z,73.37
2018-02-04T06:57:02.047Z,73.09
2018-02-04T06:58:54.983Z,72.90
2018-02-04T06:59:54.953Z,72.71
2018-02-04T07:01:47.882Z,73.09
2018-02-04T07:02:47.827Z,73.47
2018-02-04T07:04:40.635Z,73.09
2018-02-04T07:05:40.595Z,72.62
2018-02-04T07:07:33.541Z,73.18
2018-02-04T07:08:33.475Z,73.75
2018-02-04T07:10:26.514Z,73.33
2018-02-04T07:11:26.471Z,73.47
2018-02-04T07:13:19.497Z,73.09
2018-02-04T07:14:19.450Z,73.94
2018-02-04T07:16:12.597Z,73.94
2018-02-04T07:17:12.515Z,74.04
2018-02-04T07:19:05.472Z,74.04
2018-02-04T07:20:05.415Z,74.13
2018-02-04T07:21:58.227Z,74.41
2018-02-04T07:22:58.168Z,73.56
2018-02-04T07:24:50.995Z,73.75
2018-02-04T07:25:50.938Z,74.13
2018-02-04T07:27:43.901Z,74.04
2018-02-04T07:28:43.832Z,74.13
2018-02-04T07:30:36.809Z,73.94
2018-02-04T07:31:36.727Z,73.94
2018-02-04T07:33:29.693Z,73.56
2018-02-04T07:34:29.634Z,73.09
2018-02-04T07:36:22.426Z,73.28
2018-02-04T07:37:22.396Z,74.04
2018-02-04T07:39:15.372Z,73.75
2018-02-04T07:40:15.281Z,74.13
2018-02-04T07:42:08.223Z,73.18
2018-02-04T07:43:08.195Z,73.37
2018-02-04T07:45:00.995Z,73.56
2018-02-04T07:46:00.936Z,73.18
2018-02-04T07:47:54.164Z,73.56
2018-02-04T07:48:54.012Z,73.28
2018-02-04T07:50:46.987Z,72.52
2018-02-04T07:51:46.946Z,72.33
2018-02-04T07:53:39.926Z,72.71
2018-02-04T07:54:39.856Z,72.80
2018-02-04T07:56:33.038Z,73.09
2018-02-04T07:57:32.918Z,72.52
2018-02-04T07:59:25.906Z,73.47
2018-02-04T08:00:25.833Z,73.09
2018-02-04T08:02:18.799Z,73.18
2018-02-04T08:03:18.730Z,73.28
2018-02-04T08:05:11.896Z,73.56
2018-02-04T08:06:11.812Z,72.90
2018-02-04T08:08:04.759Z,73.09
2018-02-04T08:09:04.700Z,73.09
2018-02-04T08:10:57.657Z,73.66
2018-02-04T08:11:57.606Z,73.47
2018-02-04T08:13:50.543Z,73.56
2018-02-04T08:14:50.492Z,73.47
2018-02-04T08:16:43.467Z,73.18
2018-02-04T08:17:43.387Z,73.47
2018-02-04T08:19:36.340Z,73.75
2018-02-04T08:20:36.288Z,73.66
2018-02-04T08:22:29.127Z,74.32
2018-02-04T08:23:29.062Z,74.13
2018-02-04T08:25:22.239Z,73.75
2018-02-04T08:26:22.185Z,73.47
2018-02-04T08:28:15.132Z,73.28
2018-02-04T08:29:15.069Z,73.18
2018-02-04T08:31:07.987Z,73.75
2018-02-04T08:32:07.967Z,74.32
2018-02-04T08:34:00.808Z,74.41
2018-02-04T08:35:00.706Z,74.41
2018-02-04T08:36:53.718Z,74.22
2018-02-04T08:37:53.633Z,74.04
2018-02-04T08:39:46.599Z,75.26
2018-02-04T08:40:46.541Z,75.17
2018-02-04T08:42:39.354Z,76.21
2018-02-04T08:43:39.293Z,75.93
2018-02-04T08:45:32.370Z,75.93
2018-02-04T08:46:32.322Z,75.64
2018-02-04T08:48:25.280Z,75.93
2018-02-04T08:49:25.217Z,75.26
2018-02-04T08:51:18.157Z,75.26
2018-02-04T08:52:18.224Z,75.74
2018-02-04T08:54:11.105Z,75.17
2018-02-04T08:55:11.018Z,75.74
2018-02-04T08:57:03.817Z,75.74
2018-02-04T08:58:03.770Z,76.21
2018-02-04T08:59:56.746Z,75.87
2018-02-04T09:00:56.674Z,75.45
2018-02-04T09:02:49.643Z,75.12
2018-02-04T09:03:49.571Z,75.02
2018-02-04T09:05:42.545Z,73.79
2018-02-04T09:06:42.470Z,73.79
2018-02-04T09:08:35.262Z,73.22
2018-02-04T09:09:35.222Z,74.07
2018-02-04T09:11:28.190Z,72.09
2018-02-04T09:12:28.118Z,71.90
2018-02-04T09:14:21.130Z,71.99
2018-02-04T09:15:21.053Z,72.28
2018-02-04T09:17:13.994Z,71.33
2018-02-04T09:18:13.950Z,71.61
2018-02-04T09:20:06.871Z,71.23
2018-02-04T09:21:06.815Z,72.18
2018-02-04T09:22:59.592Z,72.66
2018-02-04T09:23:59.563Z,72.09
2018-02-04T09:25:52.505Z,72.18
2018-02-04T09:26:52.453Z,72.47
2018-02-04T09:28:45.413Z,71.90
2018-02-04T09:29:45.366Z,71.52
2018-02-04T09:31:38.162Z,71.42
2018-02-04T09:32:38.140Z,72.18
2018-02-04T09:34:30.968Z,71.80
2018-02-04T09:35:30.917Z,72.41
2018-02-04T09:37:23.898Z,70.70
2018-02-04T09:38:23.809Z,70.32
2018-02-04T09:40:16.785Z,70.32
2018-02-04T09:41:16.745Z,69.95
2018-02-04T09:43:09.538Z,69.47
2018-02-04T09:44:09.469Z,69.95
2018-02-04T09:46:02.641Z,70.04
2018-02-04T09:47:02.537Z,70.04
2018-02-04T09:48:55.562Z,69.95
2018-02-04T09:49:55.504Z,69.19
2018-02-04T09:51:48.429Z,68.90
2018-02-04T09:52:48.384Z,70.04
2018-02-04T09:54:41.553Z,70.98
2018-02-04T09:55:41.437Z,71.36
2018-02-04T09:57:34.401Z,72.12
2018-02-04T09:58:34.380Z,71.74
2018-02-04T10:00:27.329Z,72.34
2018-02-04T10:01:27.259Z,72.44
2018-02-04T10:03:20.156Z,73.16
2018-02-04T10:04:20.109Z,73.26
2018-02-04T10:06:13.038Z,73.64
2018-02-04T10:07:12.998Z,73.73
2018-02-04T10:09:05.802Z,73.16
2018-02-04T10:10:05.750Z,74.11
2018-02-04T10:11:58.546Z,73.64
2018-02-04T10:12:58.499Z,73.92
2018-02-04T10:14:51.482Z,74.21
2018-02-04T10:15:51.410Z,74.02
2018-02-04T10:17:44.272Z,74.21
2018-02-04T10:18:44.189Z,74.21
2018-02-04T10:20:37.141Z,73.64
2018-02-04T10:21:37.106Z,73.64
2018-02-04T10:23:30.076Z,73.45
2018-02-04T10:24:29.993Z,73.54
2018-02-04T10:26:22.948Z,73.30
2018-02-04T10:27:22.885Z,73.11
2018-02-04T10:29:16.014Z,73.07
2018-02-04T10:30:15.887Z,73.35
2018-02-04T10:32:08.838Z,73.83
2018-02-04T10:33:08.801Z,74.30
2018-02-04T10:35:01.794Z,73.73
2018-02-04T10:36:01.706Z,74.02
2018-02-04T10:37:54.492Z,74.05
2018-02-04T10:38:54.466Z,73.68
2018-02-04T10:40:47.414Z,73.64
2018-02-04T10:41:47.353Z,73.92
2018-02-04T10:43:40.304Z,74.30
2018-02-04T10:44:40.289Z,73.92
2018-02-04T10:46:33.237Z,73.92
2018-02-04T10:47:33.183Z,74.58
2018-02-04T10:49:25.963Z,74.87
2018-02-04T10:50:25.931Z,74.21
2018-02-04T10:52:18.947Z,74.02
2018-02-04T10:53:18.853Z,74.21
2018-02-04T10:55:11.804Z,74.77
2018-02-04T10:56:11.759Z,74.96
2018-02-04T10:58:04.843Z,75.81
2018-02-04T10:59:04.672Z,76.10
2018-02-04T11:00:57.733Z,77.23
2018-02-04T11:01:57.671Z,77.14
2018-02-04T11:03:50.628Z,78.08
2018-02-04T11:04:50.563Z,77.42
2018-02-04T11:06:43.546Z,77.51
2018-02-04T11:07:43.522Z,77.99
2018-02-04T11:09:36.337Z,77.14
2018-02-04T11:10:36.265Z,78.08
2018-02-04T11:12:29.138Z,77.51
2018-02-04T11:13:29.055Z,77.23
2018-02-04T11:15:21.856Z,77.56
2018-02-04T11:16:21.786Z,77.42
2018-02-04T11:18:14.792Z,76.48
2018-02-04T11:19:14.824Z,76.48
2018-02-04T11:21:07.706Z,76.48
2018-02-04T11:22:07.670Z,76.95
2018-02-04T11:24:00.728Z,76.86
2018-02-04T11:25:00.638Z,77.04
2018-02-04T11:26:53.607Z,77.23
2018-02-04T11:27:53.562Z,76.95
2018-02-04T11:29:46.582Z,77.18
2018-02-04T11:30:46.540Z,76.23
2018-02-04T11:32:39.353Z,75.19
2018-02-04T11:33:39.270Z,74.81
2018-02-04T11:35:32.248Z,75.09
2018-02-04T11:36:32.204Z,75.28
2018-02-04T11:38:25.183Z,75.28
2018-02-04T11:39:25.141Z,75.09
2018-02-04T11:41:18.359Z,74.62
2018-02-04T11:42:18.207Z,75.19
2018-02-04T11:44:11.208Z,76.14
2018-02-04T11:45:11.123Z,76.23
2018-02-04T11:47:04.059Z,76.23
2018-02-04T11:48:04.041Z,75.85
2018-02-04T11:49:56.865Z,74.66
2018-02-04T11:50:56.778Z,74.24
2018-02-04T11:52:49.618Z,75.28
2018-02-04T11:53:49.547Z,74.95
2018-02-04T11:55:42.560Z,74.66
2018-02-04T11:56:42.487Z,74.95
2018-02-04T11:58:35.454Z,75.23
2018-02-04T11:59:35.396Z,75.85
2018-02-04T12:01:28.364Z,76.80
2018-02-04T12:02:28.295Z,77.46
2018-02-04T12:04:21.496Z,78.59
2018-02-04T12:05:21.460Z,78.59
2018-02-04T12:07:14.428Z,78.50
2018-02-04T12:08:14.371Z,78.22
2018-02-04T12:10:07.574Z,78.79
2018-02-04T12:11:07.464Z,77.46
2018-02-04T12:13:00.933Z,78.41
2018-02-04T12:14:00.401Z,78.69
2018-02-04T12:15:53.368Z,78.27
2018-02-04T12:16:53.315Z,78.31
2018-02-04T12:18:46.442Z,77.80
2018-02-04T12:19:46.393Z,78.18
2018-02-04T12:21:39.384Z,78.85
2018-02-04T12:22:39.312Z,79.41
2018-02-04T12:24:32.269Z,80.36
2018-02-04T12:25:32.239Z,80.45
2018-02-04T12:27:25.080Z,79.88
2018-02-04T12:28:25.028Z,80.26
2018-02-04T12:30:17.968Z,81.12
2018-02-04T12:31:17.958Z,81.02
2018-02-04T12:33:10.958Z,80.26
2018-02-04T12:34:10.857Z,80.36
2018-02-04T12:36:03.802Z,80.55
2018-02-04T12:37:03.763Z,81.59
2018-02-04T12:38:56.817Z,82.82
2018-02-04T12:39:56.778Z,83.01
2018-02-04T12:41:49.540Z,84.33
2018-02-04T12:42:49.510Z,84.90
2018-02-04T12:44:42.463Z,85.94
2018-02-04T12:45:42.484Z,86.89
2018-02-04T12:47:35.586Z,87.46
2018-02-04T12:48:35.495Z,88.12
2018-02-04T12:50:28.458Z,89.25
2018-02-04T12:51:28.392Z,89.12
2018-02-04T12:53:21.415Z,90.39
2018-02-04T12:54:21.340Z,90.01
2018-02-04T12:56:14.486Z,90.25
2018-02-04T12:57:14.413Z,90.34
2018-02-04T12:59:07.418Z,90.20
2018-02-04T13:00:07.359Z,90.91
2018-02-04T13:02:00.307Z,91.43
2018-02-04T13:03:00.263Z,90.96
2018-02-04T13:04:53.385Z,91.58
2018-02-04T13:05:53.340Z,91.86
2018-02-04T13:07:46.294Z,92.99
2018-02-04T13:08:46.235Z,92.52
2018-02-04T13:10:39.199Z,91.58
2018-02-04T13:11:39.129Z,91.67
2018-02-04T13:13:31.955Z,91.96
2018-02-04T13:14:31.948Z,91.67
2018-02-04T13:16:24.903Z,92.43
2018-02-04T13:17:24.832Z,92.80
2018-02-04T13:19:17.762Z,91.20
2018-02-04T13:20:17.758Z,91.86
2018-02-04T13:22:10.742Z,92.80
2018-02-04T13:23:10.669Z,93.09
2018-02-04T13:25:03.679Z,92.80
2018-02-04T13:26:03.609Z,93.66
2018-02-04T13:27:56.590Z,93.56
2018-02-04T13:28:56.527Z,93.47
2018-02-04T13:30:49.483Z,92.61
2018-02-04T13:31:49.439Z,92.43
2018-02-04T13:33:42.302Z,93.94
2018-02-04T13:34:42.257Z,93.75
2018-02-04T13:36:35.267Z,93.66
2018-02-04T13:37:35.145Z,93.13
2018-02-04T13:39:28.087Z,92.61
2018-02-04T13:40:28.140Z,92.52
2018-02-04T13:42:21.056Z,93.56
2018-02-04T13:43:21.003Z,93.56
2018-02-04T13:45:14.018Z,93.13
2018-02-04T13:46:13.972Z,92.66
2018-02-04T13:48:06.973Z,92.52
2018-02-04T13:49:06.895Z,92.52
2018-02-04T13:50:59.850Z,92.19
2018-02-04T13:51:59.819Z,90.58
2018-02-04T13:53:52.683Z,90.77
2018-02-04T13:54:52.590Z,90.39
2018-02-04T13:56:45.541Z,89.44
2018-02-04T13:57:45.475Z,89.20
2018-02-04T13:59:38.458Z,88.73
2018-02-04T14:00:38.391Z,87.98
2018-02-04T14:02:31.347Z,86.08
2018-02-04T14:03:31.309Z,86.03
2018-02-04T14:05:24.419Z,84.89
2018-02-04T14:06:24.344Z,84.42
2018-02-04T14:08:17.307Z,83.51
2018-02-04T14:09:17.274Z,82.43
2018-02-04T14:11:10.265Z,81.95
2018-02-04T14:12:10.194Z,81.95
2018-02-04T14:14:03.298Z,83.43
2018-02-04T14:15:03.019Z,83.24
2018-02-04T14:16:56.019Z,82.71
2018-02-04T14:17:55.996Z,83.14
2018-02-04T14:19:48.919Z,84.56
2018-02-04T14:20:48.861Z,84.56
2018-02-04T14:22:42.075Z,84.47
2018-02-04T14:23:41.980Z,84.66
2018-02-04T14:25:34.927Z,85.51
2018-02-04T14:26:34.901Z,84.94
2018-02-04T14:28:27.881Z,85.23
2018-02-04T14:29:27.800Z,84.94
2018-02-04T14:31:20.977Z,83.20
2018-02-04T14:32:20.937Z,84.14
2018-02-04T14:34:13.860Z,84.05
2018-02-04T14:35:13.812Z,84.42
2018-02-04T14:37:08.175Z,84.14
2018-02-04T14:38:08.069Z,83.58
2018-02-04T14:40:00.868Z,82.91
2018-02-04T14:41:00.833Z,82.72
2018-02-04T14:42:53.679Z,82.06
2018-02-04T14:43:53.590Z,82.44
2018-02-04T14:45:46.539Z,82.15
2018-02-04T14:46:46.500Z,82.63
2018-02-04T14:48:39.784Z,79.50
2018-02-04T14:49:39.686Z,78.27
2018-02-04T14:51:32.608Z,78.08
2018-02-04T14:52:32.588Z,77.51
2018-02-04T14:54:25.885Z,75.43
2018-02-04T14:55:25.730Z,74.30
2018-02-04T14:57:18.678Z,73.64
2018-02-04T14:58:18.604Z,72.88
2018-02-04T15:00:11.487Z,72.60
2018-02-04T15:01:11.428Z,72.97
2018-02-04T15:03:04.660Z,71.27
2018-02-04T15:04:04.485Z,70.14
2018-02-04T15:05:57.575Z,71.65
2018-02-04T15:06:57.537Z,72.25
2018-02-04T15:08:50.566Z,70.89
2018-02-04T15:09:50.521Z,69.47
2018-02-04T15:11:43.334Z,68.24
2018-02-04T15:12:43.296Z,69.09
2018-02-04T15:14:36.256Z,69.47
2018-02-04T15:15:36.194Z,68.90
2018-02-04T15:17:29.171Z,70.32
2018-02-04T15:18:29.142Z,70.14
2018-02-04T15:20:22.385Z,69.00
2018-02-04T15:21:22.260Z,69.28
2018-02-04T15:23:15.179Z,68.71
2018-02-04T15:24:15.181Z,68.81
2018-02-04T15:26:08.142Z,68.71
2018-02-04T15:27:08.070Z,68.90
2018-02-04T15:29:00.898Z,70.23
2018-02-04T15:30:00.824Z,69.47
2018-02-04T15:31:53.675Z,69.00
2018-02-04T15:32:53.643Z,69.19
2018-02-04T15:34:46.601Z,68.81
2018-02-04T15:35:46.545Z,69.85
2018-02-04T15:37:39.490Z,68.62
2018-02-04T15:38:39.469Z,68.62
2018-02-04T15:40:32.498Z,69.57
2018-02-04T15:41:32.417Z,69.09
2018-02-04T15:43:25.405Z,68.90
2018-02-04T15:44:25.360Z,69.09
2018-02-04T15:46:18.199Z,70.14
2018-02-04T15:47:18.120Z,70.23
2018-02-04T15:49:11.123Z,70.42
2018-02-04T15:50:11.057Z,70.48
2018-02-04T15:52:04.221Z,70.70
2018-02-04T15:53:04.127Z,70.95
2018-02-04T15:54:57.265Z,70.20
2018-02-04T15:55:57.276Z,71.04
2018-02-04T15:57:50.495Z,70.76
2018-02-04T15:58:50.346Z,70.67
2018-02-04T16:00:43.294Z,72.09
2018-02-04T16:01:43.279Z,72.18
2018-02-04T16:03:36.236Z,71.33
2018-02-04T16:04:36.155Z,71.90
2018-02-04T16:06:29.339Z,72.94
2018-02-04T16:07:29.274Z,73.50
2018-02-04T16:09:22.408Z,74.26
2018-02-04T16:10:22.368Z,74.17
2018-02-04T16:12:15.596Z,74.74
2018-02-04T16:13:15.451Z,74.64
2018-02-04T16:15:08.404Z,75.21
2018-02-04T16:16:08.381Z,75.21
2018-02-04T16:18:01.364Z,74.93
2018-02-04T16:19:01.300Z,75.12
2018-02-04T16:20:54.102Z,75.49
2018-02-04T16:21:54.072Z,75.12
2018-02-04T16:23:47.061Z,74.93
2018-02-04T16:24:46.809Z,75.31
2018-02-04T16:26:39.761Z,75.02
2018-02-04T16:27:39.715Z,75.12
2018-02-04T16:29:32.729Z,76.15
2018-02-04T16:30:32.651Z,75.87
2018-02-04T16:32:25.798Z,76.15
2018-02-04T16:33:25.745Z,75.87
2018-02-04T16:35:18.708Z,75.78
2018-02-04T16:36:18.669Z,76.72
2018-02-04T16:38:11.611Z,77.10
2018-02-04T16:39:11.612Z,77.20
2018-02-04T16:41:04.686Z,77.10
2018-02-04T16:42:04.532Z,77.10
2018-02-04T16:43:57.534Z,76.72
2018-02-04T16:44:57.455Z,77.67
2018-02-04T16:46:50.400Z,77.20
2018-02-04T16:47:50.444Z,76.82
2018-02-04T16:49:43.207Z,77.20
2018-02-04T16:50:43.108Z,76.78
2018-02-04T16:52:35.925Z,77.29
2018-02-04T16:53:35.859Z,77.01
2018-02-04T16:55:28.925Z,77.01
2018-02-04T16:56:28.825Z,76.97
2018-02-04T16:58:21.765Z,77.29
2018-02-04T16:59:21.741Z,77.39
2018-02-04T17:01:14.705Z,77.01
2018-02-04T17:02:14.644Z,77.20
2018-02-04T17:04:07.550Z,77.01
2018-02-04T17:05:07.472Z,77.20
2018-02-04T17:07:00.448Z,76.87
2018-02-04T17:08:00.364Z,77.01
2018-02-04T17:09:53.344Z,77.01
2018-02-04T17:10:53.384Z,76.82
2018-02-04T17:12:46.140Z,76.59
2018-02-04T17:13:46.088Z,76.44
2018-02-04T17:15:38.865Z,76.34
2018-02-04T17:16:38.825Z,76.82
2018-02-04T17:18:31.746Z,75.68
2018-02-04T17:19:31.590Z,76.21
2018-02-04T17:21:24.569Z,76.72
2018-02-04T17:22:24.496Z,76.59
2018-02-04T17:24:17.501Z,76.40
2018-02-04T17:25:17.451Z,75.93
2018-02-04T17:27:10.740Z,76.31
2018-02-04T17:28:10.487Z,76.68
2018-02-04T17:30:03.534Z,76.21
2018-02-04T17:31:03.430Z,76.21
2018-02-04T17:32:56.312Z,75.93
2018-02-04T17:33:56.191Z,76.68
2018-02-04T17:35:49.167Z,76.59
2018-02-04T17:36:49.092Z,76.50
2018-02-04T17:38:42.182Z,75.83
2018-02-04T17:39:42.167Z,75.93
2018-02-04T17:41:35.109Z,75.17
2018-02-04T17:42:35.010Z,75.26
2018-02-04T17:44:27.840Z,75.17
2018-02-04T17:45:27.786Z,75.07
2018-02-04T17:47:21.113Z,74.69
2018-02-04T17:48:20.879Z,74.22
2018-02-04T17:50:13.847Z,73.94
2018-02-04T17:51:13.779Z,73.94
2018-02-04T17:53:06.706Z,73.94
2018-02-04T17:54:06.662Z,73.85
2018-02-04T17:55:59.885Z,73.56
2018-02-04T17:56:59.737Z,73.94
2018-02-04T17:58:52.728Z,73.85
2018-02-04T17:59:52.626Z,73.66
2018-02-04T18:01:45.567Z,74.32
2018-02-04T18:02:45.542Z,73.94
2018-02-04T18:04:38.741Z,74.32
2018-02-04T18:05:38.653Z,74.22
2018-02-04T18:07:31.588Z,74.13
2018-02-04T18:08:31.557Z,73.85
2018-02-04T18:10:24.375Z,73.94
2018-02-04T18:11:24.307Z,74.51
2018-02-04T18:13:17.343Z,74.04
2018-02-04T18:14:17.330Z,74.13
2018-02-04T18:16:10.293Z,74.22
2018-02-04T18:17:10.223Z,73.85
2018-02-04T18:19:03.175Z,73.75
2018-02-04T18:20:03.098Z,73.94
2018-02-04T18:21:55.947Z,74.04
2018-02-04T18:22:55.870Z,74.41
2018-02-04T18:24:49.000Z,73.85
2018-02-04T18:25:48.893Z,73.66
2018-02-04T18:27:41.858Z,74.22
2018-02-04T18:28:41.780Z,73.75
2018-02-04T18:30:34.723Z,74.13
2018-02-04T18:31:34.685Z,73.66
2018-02-04T18:33:27.958Z,73.85